createdAt,value
2019-04-20T00:01:32.631Z,102754.67
2019-04-20T00:04:01.102Z,102753.41
2019-04-20T00:06:37.735Z,102755.59
2019-04-20T00:09:08.825Z,102751.46
2019-04-20T00:11:47.805Z,102745.54
2019-04-20T00:14:11.186Z,102748.06
2019-04-20T00:16:36.038Z,102747.53
2019-04-20T00:19:07.213Z,102748.19
2019-04-20T00:21:47.004Z,102744.94
2019-04-20T00:24:24.830Z,102741.63
2019-04-20T00:29:35.568Z,102740.12
2019-04-20T00:32:02.795Z,102734.14
2019-04-20T00:34:28.305Z,102740.03
2019-04-20T00:36:54.080Z,102734.36
2019-04-20T00:39:23.903Z,102736.84
2019-04-20T00:41:58.754Z,102740.70
2019-04-20T00:44:45.937Z,102743.97
2019-04-20T00:47:30.463Z,102740.17
2019-04-20T00:49:57.920Z,102746.20
2019-04-20T00:52:31.523Z,102736.73
2019-04-20T00:54:49.443Z,102745.31
2019-04-20T00:57:30.585Z,102751.39
2019-04-20T01:00:11.032Z,102753.84
2019-04-20T01:02:39.589Z,102754.02
2019-04-20T01:05:12.987Z,102754.39
2019-04-20T01:07:35.137Z,102751.99
2019-04-20T01:10:10.931Z,102752.95
2019-04-20T01:12:42.400Z,102753.91
2019-04-20T01:15:23.644Z,102752.16
2019-04-20T01:17:43.580Z,102753.25
2019-04-20T01:20:13.720Z,102751.08
2019-04-20T01:22:51.403Z,102752.06
2019-04-20T01:25:22.144Z,102749.50
2019-04-20T01:28:04.626Z,102754.28
2019-04-20T01:30:24.933Z,102751.47
2019-04-20T01:33:06.167Z,102752.28
2019-04-20T01:35:39.636Z,102755.35
2019-04-20T01:38:15.138Z,102754.34
2019-04-20T01:40:23.278Z,102751.42
2019-04-20T01:42:53.204Z,102750.89
2019-04-20T01:45:29.310Z,102761.92
2019-04-20T01:47:57.662Z,102760.36
2019-04-20T01:50:28.423Z,102763.88
2019-04-20T01:53:08.276Z,102764.44
2019-04-20T01:56:00.023Z,102763.07
2019-04-20T01:58:23.938Z,102756.89
2019-04-20T02:00:48.089Z,102764.70
2019-04-20T02:03:38.496Z,102759.84
2019-04-20T02:06:12.682Z,102760.39
2019-04-20T02:08:37.965Z,102765.47
2019-04-20T02:11:09.179Z,102765.84
2019-04-20T02:13:46.711Z,102767.53
2019-04-20T02:16:19.013Z,102773.27
2019-04-20T02:18:59.155Z,102770.24
2019-04-20T02:21:31.695Z,102771.12
2019-04-20T02:23:49.896Z,102775.23
2019-04-20T02:26:16.029Z,102778.35
2019-04-20T02:29:12.216Z,102781.14
2019-04-20T02:32:04.708Z,102774.12
2019-04-20T02:34:26.076Z,102774.44
2019-04-20T02:41:57.349Z,102775.37
2019-04-20T02:44:36.807Z,102770.30
2019-04-20T02:47:07.492Z,102768.66
2019-04-20T02:52:21.064Z,102776.77
2019-04-20T03:01:57.345Z,102777.25
2019-04-20T03:04:22.263Z,102775.49
2019-04-20T03:06:59.447Z,102779.98
2019-04-20T03:09:35.288Z,102780.73
2019-04-20T03:14:30.347Z,102788.25
2019-04-20T03:17:10.417Z,102785.78
2019-04-20T03:19:35.533Z,102786.83
2019-04-20T03:22:19.178Z,102795.13
2019-04-20T03:24:44.262Z,102797.19
2019-04-20T03:27:11.096Z,102798.01
2019-04-20T03:29:47.075Z,102791.67
2019-04-20T03:32:58.016Z,102788.53
2019-04-20T03:37:38.067Z,102793.80
2019-04-20T03:39:56.874Z,102795.63
2019-04-20T03:42:16.001Z,102796.36
2019-04-20T03:44:52.977Z,102789.48
2019-04-20T03:47:28.920Z,102793.16
2019-04-20T03:50:10.692Z,102793.44
2019-04-20T03:52:40.379Z,102794.27
2019-04-20T03:55:16.424Z,102787.02
2019-04-20T03:57:54.199Z,102791.78
2019-04-20T04:00:22.107Z,102796.16
2019-04-20T04:03:09.349Z,102794.73
2019-04-20T04:05:27.702Z,102796.34
2019-04-20T04:07:46.771Z,102784.27
2019-04-20T04:10:28.079Z,102787.80
2019-04-20T04:13:15.067Z,102795.14
2019-04-20T04:15:52.269Z,102795.87
2019-04-20T04:18:26.106Z,102797.41
2019-04-20T04:20:57.310Z,102790.56
2019-04-20T04:23:40.829Z,102798.58
2019-04-20T04:26:11.573Z,102801.99
2019-04-20T04:28:40.904Z,102801.15
2019-04-20T04:31:16.287Z,102802.69
2019-04-20T04:36:14.032Z,102802.17
2019-04-20T04:38:57.138Z,102806.49
2019-04-20T04:41:24.218Z,102806.37
2019-04-20T04:43:49.767Z,102809.92
2019-04-20T04:46:04.053Z,102808.80
2019-04-20T04:48:38.423Z,102808.45
2019-04-20T04:51:13.141Z,102816.77
2019-04-20T04:53:47.857Z,102819.05
2019-04-20T04:56:11.737Z,102821.02
2019-04-20T04:58:38.498Z,102830.38
2019-04-20T05:01:14.787Z,102826.37
2019-04-20T05:04:02.988Z,102828.08
2019-04-20T05:06:32.047Z,102835.56
2019-04-20T05:08:51.542Z,102832.92
2019-04-20T05:11:17.414Z,102832.78
2019-04-20T05:13:54.634Z,102832.44
2019-04-20T05:16:38.288Z,102837.72
2019-04-20T05:19:13.304Z,102837.72
2019-04-20T05:21:47.336Z,102841.73
2019-04-20T05:24:25.534Z,102836.92
2019-04-20T05:27:14.290Z,102839.36
2019-04-20T05:29:27.377Z,102842.98
2019-04-20T05:32:00.836Z,102848.02
2019-04-20T05:34:45.171Z,102846.13
2019-04-20T05:37:24.482Z,102845.03
2019-04-20T05:39:51.932Z,102842.94
2019-04-20T05:42:25.836Z,102848.73
2019-04-20T05:44:54.187Z,102854.38
2019-04-20T05:47:22.713Z,102850.18
2019-04-20T05:49:50.014Z,102854.91
2019-04-20T05:54:57.672Z,102854.49
2019-04-20T05:57:30.185Z,102857.11
2019-04-20T06:00:03.607Z,102859.50
2019-04-20T06:02:34.767Z,102862.03
2019-04-20T06:05:06.959Z,102851.87
2019-04-20T06:07:35.844Z,102855.86
2019-04-20T06:10:06.236Z,102858.98
2019-04-20T06:12:36.140Z,102868.14
2019-04-20T06:15:15.412Z,102870.31
2019-04-20T06:18:06.908Z,102871.02
2019-04-20T06:20:46.733Z,102867.96
2019-04-20T06:23:41.372Z,102871.47
2019-04-20T06:26:20.533Z,102883.80
2019-04-20T06:28:32.768Z,102879.55
2019-04-20T06:31:10.748Z,102880.16
2019-04-20T06:39:34.845Z,102876.48
2019-04-20T06:49:35.120Z,102873.89
2019-04-20T06:52:17.155Z,102867.97
2019-04-20T06:54:57.740Z,102863.91
2019-04-20T06:57:34.646Z,102854.80
2019-04-20T07:00:10.199Z,102853.98
2019-04-20T07:02:35.918Z,102851.09
2019-04-20T07:05:08.771Z,102847.15
2019-04-20T07:07:36.288Z,102854.57
2019-04-20T07:10:14.771Z,102851.90
2019-04-20T07:12:37.907Z,102859.94
2019-04-20T07:15:00.069Z,102861.20
2019-04-20T07:17:53.326Z,102860.77
2019-04-20T07:20:21.321Z,102859.47
2019-04-20T07:23:11.983Z,102857.33
2019-04-20T07:25:31.084Z,102859.40
2019-04-20T07:28:09.822Z,102858.23
2019-04-20T07:30:35.463Z,102862.22
2019-04-20T07:33:06.972Z,102865.38
2019-04-20T07:35:38.791Z,102871.56
2019-04-20T07:40:38.274Z,102871.71
2019-04-20T07:43:07.732Z,102872.36
2019-04-20T07:45:36.451Z,102872.41
2019-04-20T07:48:17.974Z,102872.89
2019-04-20T07:50:37.578Z,102872.06
2019-04-20T07:53:12.226Z,102873.97
2019-04-20T07:55:51.066Z,102863.95
2019-04-20T07:58:12.241Z,102862.46
2019-04-20T08:01:04.207Z,102867.88
2019-04-20T08:03:55.602Z,102861.25
2019-04-20T08:06:02.431Z,102865.48
2019-04-20T08:08:39.989Z,102861.23
2019-04-20T08:11:12.297Z,102857.71
2019-04-20T08:16:27.753Z,102854.95
2019-04-20T08:18:51.306Z,102853.87
2019-04-20T08:21:25.738Z,102851.28
2019-04-20T08:23:53.663Z,102853.03
2019-04-20T08:26:11.407Z,102850.41
2019-04-20T08:28:49.617Z,102849.94
2019-04-20T08:31:40.635Z,102852.77
2019-04-20T08:34:33.630Z,102846.39
2019-04-20T08:36:56.637Z,102847.84
2019-04-20T08:39:46.365Z,102844.55
2019-04-20T08:42:00.244Z,102851.84
2019-04-20T08:47:15.867Z,102849.56
2019-04-20T08:50:16.214Z,102849.44
2019-04-20T08:53:05.635Z,102847.19
2019-04-20T08:55:10.572Z,102850.91
2019-04-20T08:57:27.073Z,102846.45
2019-04-20T08:59:59.665Z,102845.39
2019-04-20T09:02:28.302Z,102844.07
2019-04-20T09:05:03.245Z,102841.14
2019-04-20T09:07:33.249Z,102840.58
2019-04-20T09:10:30.736Z,102843.09
2019-04-20T09:12:50.702Z,102838.55
2019-04-20T09:15:12.606Z,102838.59
2019-04-20T09:17:50.603Z,102842.49
2019-04-20T09:20:30.449Z,102842.08
2019-04-20T09:23:08.172Z,102840.05
2019-04-20T09:28:11.616Z,102832.03
2019-04-20T09:30:52.046Z,102826.70
2019-04-20T09:33:48.593Z,102826.52
2019-04-20T09:36:21.091Z,102829.36
2019-04-20T09:39:04.631Z,102828.19
2019-04-20T09:41:59.114Z,102828.25
2019-04-20T09:44:10.905Z,102827.66
2019-04-20T09:46:48.552Z,102823.23
2019-04-20T09:49:20.660Z,102817.86
2019-04-20T09:51:59.728Z,102814.11
2019-04-20T09:54:34.067Z,102814.80
2019-04-20T09:57:08.941Z,102813.59
2019-04-20T09:59:39.999Z,102807.83
2019-04-20T10:01:55.645Z,102811.89
2019-04-20T10:04:20.016Z,102812.11
2019-04-20T10:06:49.754Z,102805.53
2019-04-20T10:09:26.322Z,102809.66
2019-04-20T10:11:50.665Z,102804.50
2019-04-20T10:14:20.268Z,102801.67
2019-04-20T10:16:49.854Z,102800.41
2019-04-20T10:19:26.039Z,102802.98
2019-04-20T10:21:50.780Z,102802.56
2019-04-20T10:24:20.918Z,102802.71
2019-04-20T10:26:50.657Z,102798.34
2019-04-20T10:29:21.549Z,102796.73
2019-04-20T10:31:56.688Z,102796.83
2019-04-20T10:34:24.094Z,102795.98
2019-04-20T10:36:55.583Z,102796.62
2019-04-20T10:39:26.794Z,102791.82
2019-04-20T10:42:00.774Z,102788.67
2019-04-20T10:44:29.318Z,102788.47
2019-04-20T10:46:59.289Z,102790.45
2019-04-20T10:49:29.109Z,102786.89
2019-04-20T10:51:59.892Z,102781.78
2019-04-20T10:54:30.283Z,102785.73
2019-04-20T10:57:01.522Z,102780.34
2019-04-20T10:59:31.857Z,102779.30
2019-04-20T11:02:01.616Z,102781.77
2019-04-20T11:04:32.612Z,102780.66
2019-04-20T11:07:02.828Z,102774.72
2019-04-20T11:09:32.606Z,102765.44
2019-04-20T11:12:02.313Z,102765.87
2019-04-20T11:14:36.731Z,102767.27
2019-04-20T11:17:04.347Z,102760.75
2019-04-20T11:19:33.949Z,102764.49
2019-04-20T11:22:04.228Z,102765.17
2019-04-20T11:24:34.599Z,102761.93
2019-04-20T11:27:04.615Z,102759.27
2019-04-20T11:29:34.280Z,102760.53
2019-04-20T11:32:05.237Z,102750.09
2019-04-20T11:34:38.843Z,102756.84
2019-04-20T11:37:07.202Z,102755.14
2019-04-20T11:39:36.992Z,102749.89
2019-04-20T11:42:07.766Z,102748.50
2019-04-20T11:44:38.252Z,102741.80
2019-04-20T11:47:08.460Z,102743.67
2019-04-20T11:49:39.429Z,102740.09
2019-04-20T11:52:09.797Z,102734.64
2019-04-20T11:54:40.055Z,102731.77
2019-04-20T11:57:09.687Z,102733.44
2019-04-20T11:59:39.240Z,102723.98
2019-04-20T12:02:21.470Z,102719.83
2019-04-20T12:05:03.895Z,102715.94
2019-04-20T12:07:20.712Z,102715.48
2019-04-20T12:09:53.468Z,102714.94
2019-04-20T12:12:35.202Z,102710.12
2019-04-20T12:14:58.727Z,102709.95
2019-04-20T12:17:29.355Z,102710.30
2019-04-20T12:19:59.946Z,102704.20
2019-04-20T12:22:30.391Z,102708.41
2019-04-20T12:25:00.513Z,102706.30
2019-04-20T12:27:30.472Z,102704.19
2019-04-20T12:30:01.698Z,102704.09
2019-04-20T12:32:35.286Z,102702.34
2019-04-20T12:35:04.378Z,102702.17
2019-04-20T12:37:38.861Z,102702.45
2019-04-20T12:40:12.196Z,102692.20
2019-04-20T12:42:44.443Z,102694.45
2019-04-20T12:45:17.588Z,102689.34
2019-04-20T12:47:49.816Z,102682.48
2019-04-20T12:50:21.509Z,102693.05
2019-04-20T12:53:10.695Z,102691.83
2019-04-20T12:55:40.889Z,102674.30
2019-04-20T12:58:10.654Z,102676.84
2019-04-20T13:00:50.177Z,102667.02
2019-04-20T13:03:21.314Z,102669.33
2019-04-20T13:05:51.990Z,102663.95
2019-04-20T13:08:28.536Z,102662.86
2019-04-20T13:10:58.357Z,102664.16
2019-04-20T13:13:32.386Z,102656.99
2019-04-20T13:16:23.174Z,102652.95
2019-04-20T13:18:55.230Z,102650.83
2019-04-20T13:21:25.082Z,102653.61
2019-04-20T13:23:56.244Z,102641.57
2019-04-20T13:26:27.046Z,102634.81
2019-04-20T13:28:57.164Z,102637.57
2019-04-20T13:31:27.195Z,102637.17
2019-04-20T13:33:57.271Z,102632.33
2019-04-20T13:36:28.183Z,102634.89
2019-04-20T13:38:59.581Z,102627.30
2019-04-20T13:41:29.823Z,102622.91
2019-04-20T13:44:01.453Z,102621.68
2019-04-20T13:46:31.268Z,102617.52
2019-04-20T13:49:01.096Z,102617.45
2019-04-20T13:51:30.964Z,102614.55
2019-04-20T13:54:01.787Z,102615.10
2019-04-20T13:56:32.254Z,102609.13
2019-04-20T13:59:07.764Z,102612.26
2019-04-20T14:01:48.531Z,102604.91
2019-04-20T14:04:26.560Z,102606.19
2019-04-20T14:06:57.550Z,102606.45
2019-04-20T14:09:27.574Z,102602.25
2019-04-20T14:12:10.279Z,102607.64
2019-04-20T14:14:28.987Z,102604.16
2019-04-20T14:16:59.045Z,102598.52
2019-04-20T14:19:29.313Z,102595.19
2019-04-20T14:22:02.107Z,102592.08
2019-04-20T14:24:33.151Z,102588.61
2019-04-20T14:27:03.376Z,102586.61
2019-04-20T14:29:37.030Z,102585.87
2019-04-20T14:32:07.687Z,102582.55
2019-04-20T14:34:38.633Z,102583.25
2019-04-20T14:37:08.807Z,102569.70
2019-04-20T14:39:38.445Z,102567.77
2019-04-20T14:42:09.870Z,102566.09
2019-04-20T14:44:39.657Z,102562.28
2019-04-20T14:47:09.779Z,102558.95
2019-04-20T14:49:40.855Z,102558.63
2019-04-20T14:52:11.433Z,102558.56
2019-04-20T14:54:41.460Z,102548.98
2019-04-20T14:57:13.762Z,102544.97
2019-04-20T14:59:45.457Z,102544.95
2019-04-20T15:02:17.383Z,102546.36
2019-04-20T15:04:47.719Z,102537.41
2019-04-20T15:07:18.388Z,102539.20
2019-04-20T15:09:48.820Z,102535.95
2019-04-20T15:12:19.021Z,102531.50
2019-04-20T15:14:48.783Z,102530.41
2019-04-20T15:17:23.540Z,102531.31
2019-04-20T15:20:03.823Z,102523.51
2019-04-20T15:22:37.426Z,102526.28
2019-04-20T15:25:09.571Z,102523.98
2019-04-20T15:27:44.699Z,102525.69
2019-04-20T15:30:14.133Z,102524.45
2019-04-20T15:32:45.051Z,102522.98
2019-04-20T15:35:17.861Z,102526.19
2019-04-20T15:37:49.172Z,102523.27
2019-04-20T15:40:19.355Z,102522.69
2019-04-20T15:42:58.823Z,102519.28
2019-04-20T15:45:23.287Z,102523.72
2019-04-20T15:47:54.181Z,102517.59
2019-04-20T15:50:23.864Z,102518.43
2019-04-20T15:52:55.297Z,102512.48
2019-04-20T15:55:30.349Z,102508.95
2019-04-20T15:57:57.518Z,102504.00
2019-04-20T16:00:28.661Z,102504.53
2019-04-20T16:03:01.180Z,102504.11
2019-04-20T16:05:42.967Z,102501.74
2019-04-20T16:08:26.386Z,102493.75
2019-04-20T16:10:57.202Z,102501.63
2019-04-20T16:13:36.037Z,102502.91
2019-04-20T16:15:59.501Z,102500.16
2019-04-20T16:18:30.605Z,102497.46
2019-04-20T16:21:09.236Z,102489.64
2019-04-20T16:23:34.662Z,102484.51
2019-04-20T16:26:08.908Z,102487.84
2019-04-20T16:28:39.545Z,102486.14
2019-04-20T16:31:11.829Z,102482.95
2019-04-20T16:33:42.241Z,102476.58
2019-04-20T16:36:12.342Z,102478.53
2019-04-20T16:38:43.553Z,102473.23
2019-04-20T16:41:14.523Z,102470.65
2019-04-20T16:43:46.228Z,102478.09
2019-04-20T16:46:19.894Z,102468.58
2019-04-20T16:48:50.191Z,102461.84
2019-04-20T16:51:20.814Z,102459.52
2019-04-20T16:53:51.847Z,102467.51
2019-04-20T16:56:22.384Z,102460.80
2019-04-20T16:58:54.741Z,102462.85
2019-04-20T17:01:27.566Z,102462.14
2019-04-20T17:04:06.794Z,102460.84
2019-04-20T17:06:32.014Z,102463.47
2019-04-20T17:09:02.898Z,102458.51
2019-04-20T17:11:33.977Z,102453.35
2019-04-20T17:14:03.939Z,102457.52
2019-04-20T17:16:33.687Z,102457.02
2019-04-20T17:19:03.804Z,102453.93
2019-04-20T17:21:34.226Z,102456.08
2019-04-20T17:24:04.728Z,102456.14
2019-04-20T17:26:39.039Z,102451.53
2019-04-20T17:29:18.075Z,102457.92
2019-04-20T17:32:05.518Z,102454.85
2019-04-20T17:34:48.205Z,102444.74
2019-04-20T17:37:06.832Z,102449.48
2019-04-20T17:39:53.958Z,102447.57
2019-04-20T17:42:27.693Z,102450.67
2019-04-20T17:44:49.291Z,102447.23
2019-04-20T17:47:35.036Z,102451.31
2019-04-20T17:50:01.999Z,102447.83
2019-04-20T17:52:44.842Z,102442.21
2019-04-20T17:54:51.575Z,102442.27
2019-04-20T17:57:21.540Z,102445.66
2019-04-20T18:00:01.435Z,102447.34
2019-04-20T18:02:59.245Z,102443.91
2019-04-20T18:05:34.299Z,102451.27
2019-04-20T18:08:10.601Z,102449.16
2019-04-20T18:10:36.422Z,102448.86
2019-04-20T18:12:56.546Z,102447.74
2019-04-20T18:15:40.656Z,102447.42
2019-04-20T18:18:28.481Z,102454.25
2019-04-20T18:20:45.547Z,102459.12
2019-04-20T18:23:16.355Z,102459.92
2019-04-20T18:26:11.972Z,102456.13
2019-04-20T18:28:46.465Z,102461.78
2019-04-20T18:31:00.192Z,102460.97
2019-04-20T18:33:31.084Z,102462.78
2019-04-20T18:36:00.448Z,102461.95
2019-04-20T18:38:39.373Z,102455.81
2019-04-20T18:41:07.282Z,102456.60
2019-04-20T18:43:43.911Z,102454.11
2019-04-20T18:46:22.833Z,102455.91
2019-04-20T18:48:54.291Z,102457.73
2019-04-20T18:51:10.162Z,102457.70
2019-04-20T18:53:43.305Z,102467.08
2019-04-20T18:56:12.283Z,102464.37
2019-04-20T18:58:43.007Z,102467.78
2019-04-20T19:01:12.976Z,102465.45
2019-04-20T19:03:45.471Z,102471.05
2019-04-20T19:06:14.259Z,102470.73
2019-04-20T19:08:49.435Z,102474.18
2019-04-20T19:11:19.452Z,102478.91
2019-04-20T19:14:16.123Z,102475.05
2019-04-20T19:16:53.789Z,102481.28
2019-04-20T19:19:25.820Z,102475.27
2019-04-20T19:21:47.829Z,102477.42
2019-04-20T19:24:21.144Z,102478.32
2019-04-20T19:26:54.156Z,102480.47
2019-04-20T19:29:28.420Z,102488.41
2019-04-20T19:32:14.324Z,102489.99
2019-04-20T19:34:36.398Z,102487.59
2019-04-20T19:37:03.864Z,102491.85
2019-04-20T19:39:39.790Z,102486.11
2019-04-20T19:42:11.559Z,102486.23
2019-04-20T19:44:47.960Z,102488.55
2019-04-20T19:47:24.829Z,102485.63
2019-04-20T19:49:40.765Z,102486.55
2019-04-20T19:52:33.162Z,102492.45
2019-04-20T19:54:50.449Z,102489.44
2019-04-20T19:57:24.375Z,102487.50
2019-04-20T19:59:40.280Z,102495.70
2019-04-20T20:02:07.640Z,102494.13
2019-04-20T20:04:42.540Z,102493.14
2019-04-20T20:07:21.124Z,102492.14
2019-04-20T20:09:49.794Z,102494.89
2019-04-20T20:12:14.732Z,102494.73
2019-04-20T20:14:46.572Z,102500.00
2019-04-20T20:17:37.046Z,102493.59
2019-04-20T20:20:16.967Z,102492.27
2019-04-20T20:22:28.388Z,102495.34
2019-04-20T20:24:49.379Z,102490.10
2019-04-20T20:27:29.173Z,102493.14
2019-04-20T20:29:59.518Z,102498.41
2019-04-20T20:32:38.841Z,102504.71
2019-04-20T20:35:02.683Z,102503.77
2019-04-20T20:37:31.771Z,102502.86
2019-04-20T20:40:07.844Z,102497.72
2019-04-20T20:42:39.953Z,102508.25
2019-04-20T20:45:12.958Z,102505.03
2019-04-20T20:47:49.088Z,102507.59
2019-04-20T20:50:20.355Z,102507.02
2019-04-20T20:52:50.867Z,102501.69
2019-04-20T20:55:22.115Z,102499.99
2019-04-20T20:57:50.878Z,102497.00
2019-04-20T21:00:26.857Z,102499.10
2019-04-20T21:02:50.856Z,102497.99
2019-04-20T21:05:15.465Z,102499.25
2019-04-20T21:07:48.278Z,102499.37
2019-04-20T21:10:25.920Z,102505.48
2019-04-20T21:12:53.842Z,102500.00
2019-04-20T21:15:22.568Z,102508.77
2019-04-20T21:18:16.268Z,102503.87
2019-04-20T21:20:46.480Z,102501.10
2019-04-20T21:23:07.210Z,102500.99
2019-04-20T21:25:36.097Z,102496.34
2019-04-20T21:28:02.638Z,102498.58
2019-04-20T21:30:38.029Z,102497.02
2019-04-20T21:33:05.561Z,102501.66
2019-04-20T21:35:38.167Z,102503.40
2019-04-20T21:38:10.282Z,102503.80
2019-04-20T21:40:41.425Z,102510.12
2019-04-20T21:43:11.336Z,102507.18
2019-04-20T21:45:48.371Z,102512.64
2019-04-20T21:48:35.036Z,102509.27
2019-04-20T21:51:05.862Z,102506.72
2019-04-20T21:53:22.891Z,102505.23
2019-04-20T21:55:48.069Z,102510.51
2019-04-20T21:58:25.841Z,102505.28
2019-04-20T22:01:05.123Z,102506.44
2019-04-20T22:03:26.758Z,102503.03
2019-04-20T22:06:06.807Z,102506.38
2019-04-20T22:08:39.495Z,102496.48
2019-04-20T22:11:08.594Z,102488.28
2019-04-20T22:13:42.086Z,102488.67
2019-04-20T22:16:12.664Z,102487.09
2019-04-20T22:18:59.324Z,102485.80
2019-04-20T22:21:22.747Z,102481.13
2019-04-20T22:23:59.752Z,102471.83
2019-04-20T22:26:26.349Z,102472.80
2019-04-20T22:28:47.925Z,102470.11
2019-04-20T22:31:18.326Z,102467.75
2019-04-20T22:33:48.905Z,102470.46
2019-04-20T22:36:20.236Z,102465.03
2019-04-20T22:39:09.341Z,102472.73
2019-04-20T22:41:40.762Z,102465.36
2019-04-20T22:44:15.212Z,102468.14
2019-04-20T22:46:43.749Z,102463.00
2019-04-20T22:49:33.735Z,102462.34
2019-04-20T22:51:55.744Z,102479.63
2019-04-20T22:54:35.603Z,102475.59
2019-04-20T22:56:57.284Z,102478.11
2019-04-20T22:59:23.363Z,102473.25
2019-04-20T23:01:58.215Z,102479.56
2019-04-20T23:04:24.737Z,102478.91
2019-04-20T23:06:55.841Z,102476.55
2019-04-20T23:09:26.804Z,102479.83
2019-04-20T23:12:03.849Z,102472.80
2019-04-20T23:14:28.776Z,102472.07
2019-04-20T23:16:59.721Z,102474.20
2019-04-20T23:19:38.208Z,102470.59
2019-04-20T23:22:04.584Z,102468.88
2019-04-20T23:24:33.164Z,102465.77
2019-04-20T23:27:06.496Z,102462.65
2019-04-20T23:29:37.944Z,102464.88
2019-04-20T23:32:09.589Z,102458.72
2019-04-20T23:34:38.939Z,102458.32
2019-04-20T23:37:16.145Z,102457.13
2019-04-20T23:39:41.600Z,102460.37
2019-04-20T23:42:13.019Z,102451.88
2019-04-20T23:44:51.373Z,102450.41
2019-04-20T23:47:20.108Z,102443.38
2019-04-20T23:50:06.087Z,102439.81
2019-04-20T23:52:43.080Z,102433.33
2019-04-20T23:54:59.191Z,102429.58
2019-04-20T23:57:25.944Z,102435.55
2019-04-20T23:59:55.554Z,102428.06
